Saturday, July 21, 2018, 3:34 PM EDT
Back to Local

KBVY, Beverly Municipal Airport

Location: Danvers, MA, United States Lat: 42.583
Local Time: 3:34 PM EDT (19:34 GMT) Lon: -70.917
Time Zone: US/Eastern Elev: 108 ft

Show me the last for .
Show Decoded

2018-07-21 14:53 METAR KBVY 211853Z 13011KT 10SM FEW021 23/17 A3015 RMK AO2 SLP204 T02280167 =
2018-07-21 13:53 METAR KBVY 211753Z 10011KT 10SM CLR 23/17 A3016 RMK AO2 SLP206 T02280172 10239
                 20200 58006 =
2018-07-21 12:53 METAR KBVY 211653Z 12007KT 10SM FEW040 24/16 A3016 RMK AO2 SLP208 T02390161 =
2018-07-21 11:53 METAR KBVY 211553Z 15007KT 10SM CLR 23/16 A3017 RMK AO2 SLP212 T02280156 =
2018-07-21 10:53 METAR KBVY 211453Z 13007KT 10SM CLR 23/11 A3018 RMK AO2 SLP213 T02280111 51005 =
2018-07-21 09:53 METAR KBVY 211353Z 13007KT 10SM CLR 22/11 A3018 RMK AO2 SLP213 T02220111 =
2018-07-21 08:53 METAR KBVY 211253Z 09004KT 10SM CLR 22/13 A3017 RMK AO2 SLP210 T02170128 =
2018-07-21 07:53 METAR KBVY 211153Z 00000KT 10SM CLR 20/16 A3016 RMK AO2 SLP208 T02000156 10200
                 20128 50002 =
2018-07-21 06:53 METAR KBVY 211053Z 00000KT 10SM CLR 17/16 A3016 RMK AO2 SLP208 T01720161 =
2018-07-21 05:53 METAR KBVY 210953Z AUTO 00000KT 10SM CLR 13/13 A3016 RMK AO2 SLP208 T01330128 =
2018-07-21 04:53 METAR KBVY 210853Z AUTO 00000KT 10SM CLR 14/13 A3015 RMK AO2 SLP206 T01440133
                 50001 =
2018-07-21 03:53 METAR KBVY 210753Z AUTO 00000KT 10SM CLR 14/13 A3016 RMK AO2 SLP207 T01440133 =
2018-07-21 02:53 METAR KBVY 210653Z AUTO 00000KT 10SM CLR 16/14 A3015 RMK AO2 SLP204 T01560139 =
2018-07-21 01:53 METAR KBVY 210553Z AUTO 15003KT 10SM CLR 17/15 A3015 RMK AO2 SLP205 T01720150
                 10206 20167 55002 =
2018-07-21 00:53 METAR KBVY 210453Z AUTO 16003KT 10SM CLR 18/14 A3015 RMK AO2 SLP204 T01780144
                 402720139 =
2018-07-20 23:53 METAR KBVY 210353Z AUTO 16004KT 10SM CLR 19/16 A3015 RMK AO2 SLP205 T01890156 =
2018-07-20 22:53 METAR KBVY 210253Z AUTO 13004KT 10SM CLR 18/15 A3016 RMK AO2 SLP207 T01830150
                 50003 =
2018-07-20 21:53 METAR KBVY 210153Z AUTO 12006KT 10SM CLR 19/15 A3016 RMK AO2 SLP208 T01890150 =
2018-07-20 20:53 METAR KBVY 210053Z 13006KT 10SM CLR 19/16 A3016 RMK AO2 SLP206 T01890161 =
2018-07-20 19:53 METAR KBVY 202353Z 13005KT 10SM CLR 20/15 A3015 RMK AO2 SLP204 T02000150 10256
                 20200 56003 =
2018-07-20 18:53 METAR KBVY 202253Z 12010KT 10SM CLR 22/14 A3015 RMK AO2 SLP204 T02170144 =
2018-07-20 17:53 METAR KBVY 202153Z 13011KT 10SM CLR 23/15 A3015 RMK AO2 SLP205 T02280150 =
2018-07-20 16:53 METAR KBVY 202053Z 14009KT 10SM CLR 24/17 A3016 RMK AO2 SLP206 T02390167 58003 =
2018-07-20 15:53 METAR KBVY 201953Z 12014KT 10SM CLR 24/16 A3016 RMK AO2 SLP208 T02390161 =

Support USWX by starting your Amazon purchase here.